Time;durP1;ratioP1;P1;durP2;ratioP2;P2;SDS_P1;SDS_P2;PMS_P1;PMS_P2;Temp;Humidity;BMP_temperature;BMP_pressure;BME280_temperature;BME280_humidity;BME280_pressure;Samples;Min_cycle;Max_cycle;Signal;HPM_P1;HPM_P2
2023/09/13 00:01:03;;;;;;;5.93;4.60;;;19.30;52.70;;;;;;5035281;28;20021;-81
2023/09/13 00:03:29;;;;;;;6.47;4.93;;;19.30;52.80;;;;;;5035973;28;20032;-80
2023/09/13 00:05:54;;;;;;;8.05;5.10;;;19.30;52.80;;;;;;5027211;28;20022;-80
2023/09/13 00:08:20;;;;;;;8.23;5.55;;;19.30;52.90;;;;;;5016706;28;20021;-80
2023/09/13 00:10:46;;;;;;;8.82;5.35;;;19.30;53.00;;;;;;5016282;28;20369;-80
2023/09/13 00:13:13;;;;;;;7.38;5.18;;;19.30;53.00;;;;;;5017043;28;20029;-80
2023/09/13 00:15:44;;;;;;;8.23;5.53;;;19.30;53.10;;;;;;5016497;28;20109;-80
2023/09/13 00:18:11;;;;;;;8.20;5.55;;;19.30;53.10;;;;;;5016392;28;20026;-80
2023/09/13 00:20:38;;;;;;;7.32;5.60;;;19.30;53.20;;;;;;5016376;28;20092;-81
2023/09/13 00:23:05;;;;;;;7.60;6.03;;;19.30;53.20;;;;;;5016164;28;20021;-80
2023/09/13 00:25:30;;;;;;;9.63;5.65;;;19.30;53.30;;;;;;5016572;28;20052;-81
2023/09/13 00:27:56;;;;;;;7.65;5.72;;;19.20;53.30;;;;;;5017716;28;20034;-80
2023/09/13 00:30:21;;;;;;;7.45;5.45;;;19.20;53.30;;;;;;5016121;28;20052;-81
2023/09/13 00:32:47;;;;;;;7.40;5.72;;;19.20;53.40;;;;;;5016473;28;20109;-80
2023/09/13 00:35:13;;;;;;;10.38;6.05;;;19.20;53.40;;;;;;5017666;28;20034;-81
2023/09/13 00:37:39;;;;;;;8.02;5.35;;;19.20;53.40;;;;;;5035404;28;20052;-80
2023/09/13 00:40:05;;;;;;;9.65;5.40;;;19.20;53.50;;;;;;5035926;28;20065;-81
2023/09/13 00:42:31;;;;;;;9.10;5.28;;;19.20;53.50;;;;;;5036457;28;20078;-80
2023/09/13 00:44:56;;;;;;;6.50;4.95;;;19.20;53.50;;;;;;5035669;28;20021;-80
2023/09/13 00:47:22;;;;;;;7.80;5.30;;;19.20;53.60;;;;;;5035896;28;20105;-80
2023/09/13 00:49:48;;;;;;;7.03;5.10;;;19.20;53.60;;;;;;5025860;28;20048;-80
2023/09/13 00:52:15;;;;;;;8.38;5.05;;;19.10;53.40;;;;;;5015407;28;20053;-81
2023/09/13 00:54:40;;;;;;;7.18;5.20;;;19.10;53.30;;;;;;5016119;28;20104;-80
2023/09/13 00:57:06;;;;;;;10.35;5.18;;;19.10;53.30;;;;;;5030476;28;20084;-80
2023/09/13 00:59:32;;;;;;;6.80;5.00;;;19.10;53.20;;;;;;5035752;28;20063;-80
2023/09/13 01:01:59;;;;;;;6.70;4.90;;;19.10;53.20;;;;;;5033528;28;20095;-80
2023/09/13 01:04:24;;;;;;;8.13;4.95;;;19.00;53.10;;;;;;5035350;28;20099;-80
2023/09/13 01:06:50;;;;;;;8.38;5.22;;;19.00;53.10;;;;;;5034051;28;20076;-80
2023/09/13 01:09:17;;;;;;;7.45;5.32;;;19.00;53.20;;;;;;5035378;28;20043;-80
2023/09/13 01:11:44;;;;;;;7.65;5.22;;;19.00;53.30;;;;;;5034343;28;20036;-80
2023/09/13 01:14:10;;;;;;;7.85;5.40;;;19.00;53.30;;;;;;5034102;28;20038;-80
2023/09/13 01:16:45;;;;;;;7.80;5.50;;;18.90;53.20;;;;;;5035273;28;20032;-80
2023/09/13 01:19:50;;;;;;;7.32;4.95;;;18.90;53.20;;;;;;5035384;28;20029;-80
2023/09/13 01:22:31;;;;;;;7.85;4.97;;;18.80;53.30;;;;;;5035254;28;20025;-80
2023/09/13 01:25:34;;;;;;;8.57;5.55;;;18.80;53.30;;;;;;5031807;28;20030;-80
2023/09/13 01:28:24;;;;;;;7.65;5.43;;;18.80;53.40;;;;;;5034981;28;20518;-80
2023/09/13 01:30:51;;;;;;;7.97;5.05;;;18.80;53.40;;;;;;5034897;28;20033;-80
2023/09/13 01:33:17;;;;;;;7.22;5.03;;;18.70;53.30;;;;;;5034505;28;20032;-80
2023/09/13 01:35:43;;;;;;;7.75;5.55;;;18.70;53.30;;;;;;5026802;28;20049;-80
2023/09/13 01:38:09;;;;;;;7.95;5.10;;;18.70;53.40;;;;;;5015023;28;20433;-79
2023/09/13 01:40:39;;;;;;;8.52;5.22;;;18.70;53.60;;;;;;5014987;28;20049;-80
2023/09/13 01:43:05;;;;;;;8.27;5.57;;;18.60;53.60;;;;;;5019720;28;20029;-80
2023/09/13 01:45:32;;;;;;;6.95;5.18;;;18.60;53.60;;;;;;5034609;28;20022;-80
2023/09/13 01:47:59;;;;;;;7.68;5.22;;;18.60;53.70;;;;;;5033594;28;20075;-80
2023/09/13 01:50:25;;;;;;;7.22;4.78;;;18.60;53.80;;;;;;5033224;28;20033;-80
2023/09/13 01:52:50;;;;;;;7.60;5.47;;;18.60;53.80;;;;;;5034168;28;20041;-80
2023/09/13 01:55:16;;;;;;;6.72;5.28;;;18.60;53.80;;;;;;5018832;28;20030;-79
2023/09/13 01:57:42;;;;;;;7.45;5.78;;;18.50;53.80;;;;;;5014767;28;20057;-80
2023/09/13 02:00:08;;;;;;;8.38;5.47;;;18.50;53.80;;;;;;5025041;28;20033;-80
2023/09/13 02:02:33;;;;;;;8.90;5.43;;;18.50;53.90;;;;;;5024213;28;20034;-80
2023/09/13 02:04:59;;;;;;;6.88;4.90;;;18.50;53.90;;;;;;5014331;28;20026;-80
2023/09/13 02:07:25;;;;;;;7.25;5.80;;;18.50;53.90;;;;;;5014236;28;20022;-80
2023/09/13 02:09:52;;;;;;;7.63;5.50;;;18.40;53.90;;;;;;5018283;28;20468;-80
2023/09/13 02:12:17;;;;;;;8.88;5.45;;;18.40;54.00;;;;;;5033422;28;20033;-80
2023/09/13 02:14:43;;;;;;;7.97;5.05;;;18.30;54.10;;;;;;5033823;28;20372;-80
2023/09/13 02:17:09;;;;;;;8.52;5.60;;;18.30;54.20;;;;;;5035524;28;20446;-80
2023/09/13 02:19:35;;;;;;;10.65;6.00;;;18.30;54.30;;;;;;5034317;28;20030;-79
2023/09/13 02:22:01;;;;;;;6.72;5.30;;;18.20;54.30;;;;;;5024598;28;20037;-80
2023/09/13 02:24:27;;;;;;;7.40;5.53;;;18.30;54.40;;;;;;5014546;28;20057;-80
2023/09/13 02:26:56;;;;;;;9.60;5.53;;;18.30;54.50;;;;;;5014598;28;20026;-80
2023/09/13 02:29:22;;;;;;;8.10;5.60;;;18.30;54.60;;;;;;5014325;28;20089;-81
2023/09/13 02:31:48;;;;;;;9.88;5.60;;;18.30;54.60;;;;;;5014225;28;20100;-81
2023/09/13 02:34:13;;;;;;;7.88;5.50;;;18.20;54.50;;;;;;5014333;28;20380;-81
2023/09/13 02:36:39;;;;;;;8.55;5.43;;;18.20;54.60;;;;;;5012819;28;20468;-81
2023/09/13 02:39:05;;;;;;;7.15;5.35;;;18.20;54.70;;;;;;5014408;28;20376;-80
2023/09/13 02:41:30;;;;;;;7.55;5.38;;;18.20;54.70;;;;;;5014002;28;20088;-80
2023/09/13 02:43:56;;;;;;;8.05;5.30;;;18.20;54.60;;;;;;5013945;28;20109;-81
2023/09/13 02:46:22;;;;;;;9.52;5.45;;;18.10;54.50;;;;;;5014191;28;20112;-80
2023/09/13 02:48:48;;;;;;;8.13;5.75;;;18.00;54.50;;;;;;5031509;28;20034;-80
2023/09/13 02:51:14;;;;;;;8.55;5.53;;;18.00;54.70;;;;;;5033490;28;20061;-80
2023/09/13 02:53:40;;;;;;;7.47;5.45;;;18.00;54.90;;;;;;5033378;28;20029;-80
2023/09/13 02:56:08;;;;;;;9.02;5.78;;;18.00;55.00;;;;;;5033650;28;20034;-80
2023/09/13 02:58:34;;;;;;;8.13;5.60;;;18.00;55.10;;;;;;5026292;28;20034;-81
2023/09/13 03:01:03;;;;;;;8.00;5.65;;;18.00;55.10;;;;;;5013977;28;20034;-81
2023/09/13 03:03:30;;;;;;;7.75;5.47;;;17.90;55.10;;;;;;5013673;28;20112;-80
2023/09/13 03:06:06;;;;;;;7.47;5.50;;;17.90;55.10;;;;;;5014118;28;20030;-80
2023/09/13 03:08:31;;;;;;;7.72;5.50;;;17.90;55.20;;;;;;5016235;28;20026;-81
2023/09/13 03:10:57;;;;;;;7.22;5.47;;;18.00;55.30;;;;;;5013548;28;20085;-80
2023/09/13 03:13:23;;;;;;;7.05;5.38;;;17.90;55.20;;;;;;5013449;28;20476;-81
2023/09/13 03:15:48;;;;;;;9.98;7.50;;;18.00;55.30;;;;;;5029651;28;20036;-81
2023/09/13 03:18:14;;;;;;;18.50;12.82;;;18.00;55.30;;;;;;5027307;28;20061;-81
2023/09/13 03:20:40;;;;;;;14.88;10.63;;;18.00;55.30;;;;;;5013538;28;20030;-81
2023/09/13 03:23:05;;;;;;;20.20;13.57;;;18.00;55.30;;;;;;5014368;28;20034;-81
2023/09/13 03:25:33;;;;;;;20.10;14.68;;;18.00;55.40;;;;;;5017474;28;20022;-80
2023/09/13 03:27:59;;;;;;;15.50;11.35;;;18.00;55.40;;;;;;5017312;28;20456;-81
2023/09/13 03:30:24;;;;;;;15.32;11.23;;;18.00;55.30;;;;;;5017324;28;20045;-80
2023/09/13 03:32:50;;;;;;;16.67;10.88;;;17.90;55.30;;;;;;5017586;28;20033;-80
2023/09/13 03:35:15;;;;;;;12.52;9.10;;;18.00;55.30;;;;;;5017375;28;20037;-81
2023/09/13 03:37:41;;;;;;;13.48;8.90;;;17.90;56.00;;;;;;5020664;28;20451;-80
2023/09/13 03:40:07;;;;;;;12.57;7.88;;;18.00;55.40;;;;;;5026329;28;20106;-80
2023/09/13 03:42:34;;;;;;;12.57;8.73;;;17.90;55.40;;;;;;5035834;28;20113;-80
2023/09/13 03:45:00;;;;;;;11.30;7.95;;;18.00;55.40;;;;;;5034233;28;20021;-81
2023/09/13 03:47:25;;;;;;;10.88;8.13;;;17.90;55.40;;;;;;5020405;28;20068;-87
2023/09/13 03:49:51;;;;;;;10.50;7.03;;;18.00;55.50;;;;;;5036810;28;20460;-82
2023/09/13 03:52:16;;;;;;;12.48;7.50;;;18.00;55.50;;;;;;5029559;28;20037;-84
2023/09/13 03:54:42;;;;;;;9.77;6.55;;;18.00;55.50;;;;;;5016994;28;20025;-79
2023/09/13 03:57:08;;;;;;;11.23;7.05;;;18.00;55.40;;;;;;5016966;28;20452;-83
2023/09/13 03:59:33;;;;;;;9.25;6.22;;;18.00;55.40;;;;;;5016605;28;20065;-79
2023/09/13 04:01:59;;;;;;;13.02;6.80;;;18.00;55.40;;;;;;5016151;28;20029;-82
2023/09/13 04:04:24;;;;;;;8.60;6.07;;;18.10;55.50;;;;;;5023105;28;20064;-81
2023/09/13 04:06:50;;;;;;;10.00;7.07;;;18.00;55.50;;;;;;5036130;28;20108;-76
2023/09/13 04:09:17;;;;;;;12.95;7.93;;;18.00;55.50;;;;;;5036285;28;20075;-82
2023/09/13 04:11:42;;;;;;;9.90;7.07;;;18.00;55.60;;;;;;5027034;28;20391;-81
2023/09/13 04:14:08;;;;;;;11.07;7.88;;;18.10;55.70;;;;;;5028184;28;20072;-81
2023/09/13 04:16:34;;;;;;;11.38;7.80;;;18.10;55.70;;;;;;5032151;28;20045;-79
2023/09/13 04:18:59;;;;;;;12.27;7.63;;;18.10;55.80;;;;;;5038200;28;20466;-78
2023/09/13 04:21:25;;;;;;;11.88;7.13;;;18.10;55.80;;;;;;5019193;28;20059;-86
2023/09/13 04:23:51;;;;;;;11.13;6.63;;;18.20;55.80;;;;;;5023449;28;20075;-85
2023/09/13 04:26:21;;;;;;;10.98;6.90;;;18.20;55.80;;;;;;5035446;28;20109;-76
2023/09/13 04:28:47;;;;;;;12.73;6.72;;;18.20;55.80;;;;;;5035426;28;20033;-85
2023/09/13 04:31:12;;;;;;;8.82;6.07;;;18.20;55.80;;;;;;5033560;28;20040;-77
2023/09/13 04:34:03;;;;;;;10.60;6.63;;;18.20;55.80;;;;;;5034218;28;20037;-83
2023/09/13 04:36:28;;;;;;;8.93;6.13;;;18.30;55.80;;;;;;5018789;28;20104;-86
2023/09/13 04:38:55;;;;;;;7.43;5.90;;;18.20;55.80;;;;;;5019173;28;20049;-84
2023/09/13 04:41:21;;;;;;;7.47;5.82;;;18.30;55.80;;;;;;5014948;28;20029;-82
2023/09/13 04:43:47;;;;;;;9.32;6.03;;;18.30;55.90;;;;;;5021877;28;20029;-82
2023/09/13 04:46:12;;;;;;;176.50;158.55;;;18.30;55.90;;;;;;5025104;28;20077;-84
2023/09/13 04:48:38;;;;;;;9.45;6.28;;;18.30;55.90;;;;;;5033835;28;20029;-81
2023/09/13 04:51:04;;;;;;;9.15;6.80;;;18.40;56.10;;;;;;5034518;28;20033;-85
2023/09/13 04:53:30;;;;;;;11.18;7.30;;;18.40;56.10;;;;;;5025179;28;20026;-81
2023/09/13 04:55:56;;;;;;;10.77;6.50;;;18.40;56.10;;;;;;5014472;28;20136;-82
2023/09/13 04:58:22;;;;;;;10.25;6.85;;;18.40;56.10;;;;;;5029251;28;20061;-83
2023/09/13 05:00:47;;;;;;;12.30;6.47;;;18.40;56.00;;;;;;5020731;28;20069;-84
2023/09/13 05:03:13;;;;;;;54.28;39.20;;;18.40;55.90;;;;;;5015658;28;20026;-82
2023/09/13 05:05:39;;;;;;;25.17;20.05;;;18.40;56.00;;;;;;5014621;28;20032;-83
2023/09/13 05:08:05;;;;;;;17.45;12.85;;;18.40;56.00;;;;;;5012789;28;20028;-84
2023/09/13 05:10:31;;;;;;;14.73;10.48;;;18.50;56.00;;;;;;5014822;28;20384;-82
2023/09/13 05:12:57;;;;;;;12.98;8.55;;;18.50;56.00;;;;;;5015322;28;20041;-82
2023/09/13 05:15:24;;;;;;;10.32;7.97;;;18.60;56.00;;;;;;5015723;28;20036;-84
2023/09/13 05:17:49;;;;;;;9.77;7.50;;;18.60;56.00;;;;;;5015373;28;20026;-84
2023/09/13 05:20:15;;;;;;;10.57;7.32;;;18.60;56.00;;;;;;5015382;28;20164;-84
2023/09/13 05:22:42;;;;;;;10.10;7.47;;;18.70;56.00;;;;;;5015187;28;20026;-83
2023/09/13 05:25:08;;;;;;;9.73;6.70;;;18.70;56.00;;;;;;5014292;28;20030;-83
2023/09/13 05:27:33;;;;;;;10.65;7.55;;;18.80;56.00;;;;;;5013717;28;20026;-82
2023/09/13 05:29:59;;;;;;;11.98;7.45;;;18.80;56.00;;;;;;5023385;28;20025;-83
2023/09/13 05:32:24;;;;;;;14.15;7.60;;;18.80;56.00;;;;;;5035544;28;20103;-84
2023/09/13 05:34:50;;;;;;;10.18;7.43;;;18.90;56.00;;;;;;5035070;28;20025;-84
2023/09/13 05:37:16;;;;;;;13.85;7.45;;;19.00;56.00;;;;;;5034605;28;20373;-83
2023/09/13 05:39:41;;;;;;;12.45;7.15;;;19.00;56.10;;;;;;5034087;28;20517;-83
2023/09/13 05:42:08;;;;;;;11.38;7.05;;;19.10;56.10;;;;;;5033024;28;20050;-83
2023/09/13 05:44:34;;;;;;;12.75;6.65;;;19.10;56.00;;;;;;5035015;28;20388;-84
2023/09/13 05:46:59;;;;;;;10.10;6.63;;;19.20;56.00;;;;;;5026065;28;20076;-83
2023/09/13 05:49:25;;;;;;;9.40;6.32;;;19.20;56.00;;;;;;5014557;28;20077;-83
2023/09/13 05:51:50;;;;;;;8.25;6.25;;;19.20;55.90;;;;;;5014472;28;20024;-84
2023/09/13 05:54:16;;;;;;;8.02;5.90;;;19.30;55.90;;;;;;5014540;28;20371;-84
2023/09/13 05:56:42;;;;;;;12.13;6.68;;;19.40;55.90;;;;;;5013389;28;20034;-83
2023/09/13 05:59:08;;;;;;;9.38;6.30;;;19.40;55.80;;;;;;5014772;28;20072;-84
2023/09/13 06:01:35;;;;;;;8.27;5.95;;;19.50;55.80;;;;;;5014477;28;20030;-82
2023/09/13 06:04:01;;;;;;;7.30;5.15;;;19.50;55.80;;;;;;5014273;28;20491;-83
2023/09/13 06:06:27;;;;;;;8.18;5.70;;;19.60;55.90;;;;;;5014521;28;20030;-83
2023/09/13 06:08:53;;;;;;;7.10;5.53;;;19.60;55.90;;;;;;5014290;28;20071;-82
2023/09/13 06:11:19;;;;;;;7.97;5.65;;;19.70;55.90;;;;;;5013202;28;20033;-81
2023/09/13 06:13:44;;;;;;;8.35;6.20;;;19.80;56.00;;;;;;5013266;28;20444;-84
2023/09/13 06:16:10;;;;;;;7.50;5.57;;;19.80;56.00;;;;;;5014258;28;20030;-84
2023/09/13 06:18:36;;;;;;;11.07;6.30;;;19.90;56.00;;;;;;5032443;28;20120;-84
2023/09/13 06:21:03;;;;;;;9.88;6.15;;;20.00;56.10;;;;;;5032858;28;20029;-85
2023/09/13 06:23:37;;;;;;;9.40;6.20;;;20.00;56.20;;;;;;5034099;28;20029;-83
2023/09/13 06:26:02;;;;;;;10.35;5.97;;;20.10;56.20;;;;;;5034311;28;20026;-83
2023/09/13 06:28:29;;;;;;;9.55;5.95;;;20.20;56.30;;;;;;5019287;28;20033;-83
2023/09/13 06:30:57;;;;;;;10.90;5.85;;;20.20;56.30;;;;;;5013820;28;20118;-83
2023/09/13 06:33:22;;;;;;;9.02;6.10;;;20.30;56.40;;;;;;5014356;28;20041;-83
2023/09/13 06:35:49;;;;;;;9.20;5.38;;;20.30;56.40;;;;;;5013771;28;20054;-83
2023/09/13 06:38:15;;;;;;;8.55;5.55;;;20.40;56.40;;;;;;5013749;28;20056;-84
2023/09/13 06:40:42;;;;;;;8.27;5.60;;;20.40;56.40;;;;;;5012964;28;20396;-84
2023/09/13 06:43:10;;;;;;;6.53;5.55;;;20.50;56.50;;;;;;5013752;28;20022;-83
2023/09/13 06:45:36;;;;;;;9.98;4.78;;;20.60;56.40;;;;;;5012637;28;20064;-84
2023/09/13 06:48:02;;;;;;;6.85;4.88;;;20.60;56.40;;;;;;5028751;28;20022;-84
2023/09/13 06:50:27;;;;;;;7.47;5.38;;;20.70;56.30;;;;;;5032171;28;20049;-83
2023/09/13 06:52:53;;;;;;;8.68;4.72;;;20.80;56.40;;;;;;5033550;28;20115;-83
2023/09/13 06:55:19;;;;;;;7.05;5.03;;;20.90;56.40;;;;;;5033556;28;20482;-84
2023/09/13 06:57:44;;;;;;;6.13;4.72;;;20.90;56.20;;;;;;5033779;28;20032;-84
2023/09/13 07:00:11;;;;;;;7.57;5.20;;;21.00;56.20;;;;;;5022681;28;20049;-84
2023/09/13 07:02:36;;;;;;;6.93;5.25;;;21.00;56.20;;;;;;5016315;28;20091;-83
2023/09/13 07:05:03;;;;;;;6.57;4.68;;;21.10;56.20;;;;;;5017596;28;20097;-83
2023/09/13 07:07:28;;;;;;;5.90;4.47;;;21.20;56.20;;;;;;5016183;28;20073;-83
2023/09/13 07:09:54;;;;;;;5.43;4.30;;;21.20;56.10;;;;;;5017573;28;20476;-83
2023/09/13 07:12:20;;;;;;;6.35;4.43;;;21.30;56.10;;;;;;5017876;28;20385;-83
2023/09/13 07:14:45;;;;;;;7.05;4.80;;;21.30;56.10;;;;;;5017346;28;20134;-85
2023/09/13 07:17:11;;;;;;;7.72;4.60;;;21.40;56.10;;;;;;5017397;28;20050;-82
2023/09/13 07:19:36;;;;;;;6.22;4.45;;;21.50;56.10;;;;;;5016242;28;20523;-83
2023/09/13 07:22:03;;;;;;;5.95;4.10;;;21.50;55.90;;;;;;5017444;28;20036;-83
2023/09/13 07:24:29;;;;;;;6.13;4.45;;;21.60;55.90;;;;;;5016667;28;20022;-82
2023/09/13 07:26:55;;;;;;;7.43;4.55;;;21.60;55.90;;;;;;5016280;28;20465;-82
2023/09/13 07:29:21;;;;;;;9.02;5.60;;;21.60;55.80;;;;;;5024626;28;20105;-83
2023/09/13 07:31:47;;;;;;;5.53;4.22;;;21.80;55.90;;;;;;5036731;28;20045;-83
2023/09/13 07:34:12;;;;;;;6.40;4.60;;;21.80;55.90;;;;;;5035475;28;20471;-82
2023/09/13 07:36:38;;;;;;;6.65;4.72;;;21.80;55.80;;;;;;5035316;28;20115;-84
2023/09/13 07:39:04;;;;;;;7.35;5.38;;;21.90;55.90;;;;;;5037130;28;20036;-82
2023/09/13 07:41:30;;;;;;;6.13;4.55;;;21.90;56.00;;;;;;5035729;28;20028;-83
2023/09/13 07:43:55;;;;;;;6.05;4.45;;;22.00;56.10;;;;;;5037034;28;20464;-84
2023/09/13 07:46:22;;;;;;;7.25;4.25;;;22.00;56.10;;;;;;5036662;28;20032;-83
2023/09/13 07:48:48;;;;;;;7.32;4.53;;;22.10;56.10;;;;;;5035518;28;20030;-83
2023/09/13 07:51:13;;;;;;;7.28;4.50;;;22.10;56.00;;;;;;5036439;28;20030;-83
2023/09/13 07:53:41;;;;;;;5.18;4.18;;;22.20;56.10;;;;;;5036780;28;20108;-83
2023/09/13 07:56:07;;;;;;;8.20;4.45;;;22.20;56.70;;;;;;5036803;28;20033;-82
2023/09/13 07:58:32;;;;;;;6.60;4.03;;;22.20;56.10;;;;;;5033750;28;20026;-82
2023/09/13 08:00:58;;;;;;;5.47;4.30;;;22.30;56.10;;;;;;5034656;28;20475;-83
2023/09/13 08:03:24;;;;;;;6.28;3.88;;;22.30;56.00;;;;;;5036520;28;20418;-83
2023/09/13 08:05:50;;;;;;;5.10;3.60;;;22.30;55.90;;;;;;5034997;28;20383;-82
2023/09/13 08:08:22;;;;;;;6.03;3.28;;;22.30;55.90;;;;;;5036168;28;20030;-82
2023/09/13 08:10:49;;;;;;;4.10;3.30;;;22.40;55.80;;;;;;5034436;28;20034;-83
2023/09/13 08:13:15;;;;;;;5.68;3.40;;;22.40;55.70;;;;;;5036504;28;20069;-83
2023/09/13 08:15:41;;;;;;;4.63;3.40;;;22.50;55.70;;;;;;5034770;28;20028;-83
2023/09/13 08:18:07;;;;;;;3.72;3.00;;;22.50;55.60;;;;;;5035852;28;20037;-83
2023/09/13 08:20:33;;;;;;;4.32;3.20;;;22.50;55.60;;;;;;5035893;28;20052;-83
2023/09/13 08:22:58;;;;;;;3.88;3.10;;;22.50;55.50;;;;;;5036092;28;20071;-83
2023/09/13 08:25:24;;;;;;;4.30;3.20;;;22.60;55.60;;;;;;5036013;28;20407;-82
2023/09/13 08:27:51;;;;;;;3.75;2.90;;;22.60;55.50;;;;;;5036157;28;20021;-83
2023/09/13 08:30:17;;;;;;;6.20;3.08;;;22.60;55.50;;;;;;5017723;28;20465;-83
2023/09/13 08:32:42;;;;;;;5.25;3.30;;;22.60;55.50;;;;;;5016204;28;20108;-83
2023/09/13 08:35:08;;;;;;;4.25;3.00;;;22.70;55.50;;;;;;5015023;28;20030;-82
2023/09/13 08:37:33;;;;;;;3.42;2.90;;;22.70;55.40;;;;;;5015151;28;20504;-81
2023/09/13 08:39:59;;;;;;;4.85;3.30;;;22.70;55.40;;;;;;5031877;28;20475;-82
2023/09/13 08:42:28;;;;;;;3.28;2.90;;;22.70;55.30;;;;;;5034580;28;20034;-80
2023/09/13 08:44:54;;;;;;;3.85;3.15;;;22.80;55.20;;;;;;5034327;28;20060;-83
2023/09/13 08:47:22;;;;;;;4.25;3.28;;;22.80;55.10;;;;;;5019550;28;20061;-83
2023/09/13 08:49:50;;;;;;;5.05;3.20;;;22.80;55.00;;;;;;5014328;28;20034;-81
2023/09/13 08:52:16;;;;;;;3.40;3.10;;;22.80;55.00;;;;;;5014286;28;20373;-82
2023/09/13 08:54:43;;;;;;;3.60;2.78;;;22.90;55.00;;;;;;5015724;28;20170;-83
2023/09/13 08:57:09;;;;;;;3.30;2.80;;;22.90;54.90;;;;;;5014350;28;20029;-82
2023/09/13 08:59:35;;;;;;;3.05;2.60;;;22.90;54.90;;;;;;5025077;28;20116;-82
2023/09/13 09:02:02;;;;;;;4.40;2.90;;;22.90;54.80;;;;;;5022128;28;20113;-81
2023/09/13 09:04:28;;;;;;;2.75;2.55;;;22.90;54.60;;;;;;5014287;28;20033;-83
2023/09/13 09:06:56;;;;;;;2.60;2.40;;;23.00;54.50;;;;;;5015564;28;20033;-82
2023/09/13 09:09:28;;;;;;;2.88;2.53;;;23.00;54.30;;;;;;5015399;28;20045;-83
2023/09/13 09:11:58;;;;;;;3.80;2.58;;;23.10;54.20;;;;;;5014247;28;20354;-83
2023/09/13 09:14:26;;;;;;;3.70;2.70;;;23.10;54.10;;;;;;5015175;28;20038;-82
2023/09/13 09:16:53;;;;;;;3.45;2.80;;;23.10;54.10;;;;;;5014074;28;20108;-83
2023/09/13 09:19:20;;;;;;;2.72;2.40;;;23.10;54.10;;;;;;5013962;28;20061;-83
2023/09/13 09:21:46;;;;;;;3.00;2.70;;;23.10;54.00;;;;;;5015117;28;20033;-82
2023/09/13 09:24:11;;;;;;;2.65;2.45;;;23.20;53.90;;;;;;4997699;28;20392;-83
2023/09/13 09:26:37;;;;;;;3.90;2.42;;;23.20;54.40;;;;;;5015020;28;20037;-83
2023/09/13 09:29:10;;;;;;;6.10;2.50;;;23.20;53.60;;;;;;5020769;28;20033;-81
2023/09/13 09:31:37;;;;;;;3.13;2.40;;;23.20;53.60;;;;;;5034904;28;20026;-81
2023/09/13 09:34:05;;;;;;;2.90;2.40;;;23.30;53.50;;;;;;5034908;28;20029;-82
2023/09/13 09:36:39;;;;;;;3.92;2.20;;;23.30;53.20;;;;;;5033323;28;20053;-82
2023/09/13 09:39:05;;;;;;;2.38;2.17;;;23.30;53.00;;;;;;5035026;28;20468;-82
2023/09/13 09:41:35;;;;;;;3.50;2.30;;;23.40;52.90;;;;;;5033008;28;20480;-82
2023/09/13 09:44:02;;;;;;;2.25;2.05;;;23.40;52.80;;;;;;5034002;28;20029;-82
2023/09/13 09:46:29;;;;;;;2.70;2.20;;;23.40;52.60;;;;;;5034575;28;20025;-82
2023/09/13 09:48:55;;;;;;;2.53;2.33;;;23.40;52.40;;;;;;5032872;28;20029;-82
2023/09/13 09:51:21;;;;;;;3.15;2.45;;;23.50;52.30;;;;;;5033226;28;20025;-83
2023/09/13 09:53:47;;;;;;;3.13;2.20;;;23.50;52.20;;;;;;5033193;28;20068;-82
2023/09/13 09:56:15;;;;;;;2.92;2.40;;;23.50;52.10;;;;;;5034496;28;20467;-83
2023/09/13 09:58:41;;;;;;;2.78;2.45;;;23.50;52.00;;;;;;5028630;28;20026;-82
2023/09/13 10:01:07;;;;;;;2.55;2.25;;;23.60;52.00;;;;;;5013346;28;20034;-83
2023/09/13 10:03:34;;;;;;;2.20;2.08;;;23.60;52.00;;;;;;5014926;28;20030;-83
2023/09/13 10:06:06;;;;;;;2.42;2.10;;;23.60;51.90;;;;;;5014396;28;20500;-82
2023/09/13 10:08:36;;;;;;;3.55;2.30;;;23.60;51.80;;;;;;5013318;28;20054;-83
2023/09/13 10:11:02;;;;;;;2.20;2.00;;;23.60;51.80;;;;;;5013021;28;20034;-82
2023/09/13 10:13:30;;;;;;;2.38;2.17;;;23.60;51.60;;;;;;5013001;28;20032;-82
2023/09/13 10:15:57;;;;;;;2.33;2.10;;;23.70;51.50;;;;;;5012915;28;20030;-82
2023/09/13 10:18:25;;;;;;;3.75;2.17;;;23.70;51.40;;;;;;5014374;28;20030;-82
2023/09/13 10:20:52;;;;;;;2.88;2.05;;;23.70;51.30;;;;;;5014051;28;20057;-82
2023/09/13 10:23:19;;;;;;;2.35;1.98;;;23.80;51.20;;;;;;5014234;28;20025;-82
2023/09/13 10:25:47;;;;;;;3.97;2.30;;;23.80;51.10;;;;;;5012992;28;20029;-82
2023/09/13 10:28:14;;;;;;;2.10;2.00;;;23.80;51.10;;;;;;5016114;28;20021;-82
2023/09/13 10:30:43;;;;;;;2.38;2.00;;;23.90;51.00;;;;;;5033709;28;20037;-83
2023/09/13 10:33:12;;;;;;;2.47;2.28;;;23.90;50.90;;;;;;5032118;28;20452;-82
2023/09/13 10:35:44;;;;;;;2.42;2.00;;;23.90;50.80;;;;;;5033788;28;20052;-82
2023/09/13 10:38:43;;;;;;;2.35;2.00;;;23.90;50.60;;;;;;5032941;28;20037;-82
2023/09/13 10:41:13;;;;;;;2.10;2.00;;;23.90;50.40;;;;;;5034300;28;20112;-83
2023/09/13 10:43:40;;;;;;;2.97;2.15;;;24.00;50.60;;;;;;5033530;28;20104;-83
2023/09/13 10:46:08;;;;;;;3.47;2.20;;;24.00;50.50;;;;;;5032544;28;20021;-82
2023/09/13 10:48:34;;;;;;;2.20;2.00;;;24.00;50.40;;;;;;5033451;28;20028;-82
2023/09/13 10:51:01;;;;;;;3.15;1.90;;;24.00;50.40;;;;;;5032375;28;20037;-82
2023/09/13 10:53:26;;;;;;;2.15;1.95;;;24.10;50.40;;;;;;5032376;28;20471;-83
2023/09/13 10:55:54;;;;;;;2.28;2.03;;;24.10;50.20;;;;;;5033664;28;20036;-84
2023/09/13 10:58:21;;;;;;;2.35;2.15;;;24.20;50.20;;;;;;5029735;28;20026;-83
2023/09/13 11:00:50;;;;;;;2.63;2.00;;;24.20;50.00;;;;;;5024739;28;20040;-81
2023/09/13 11:03:19;;;;;;;2.50;1.90;;;24.20;49.90;;;;;;5012328;28;20038;-83
2023/09/13 11:05:52;;;;;;;2.53;2.33;;;24.20;49.80;;;;;;5013810;28;20026;-82
2023/09/13 11:08:31;;;;;;;2.30;2.10;;;24.30;49.80;;;;;;5013759;28;20029;-82
2023/09/13 11:11:18;;;;;;;2.30;2.10;;;24.30;49.60;;;;;;5013413;28;20567;-81
2023/09/13 11:13:45;;;;;;;2.58;2.10;;;24.30;49.60;;;;;;5012871;28;20030;-81
2023/09/13 11:16:16;;;;;;;1.80;1.63;;;24.30;49.50;;;;;;5012445;28;20492;-84
2023/09/13 11:18:49;;;;;;;1.92;1.83;;;24.30;49.50;;;;;;5012743;28;20049;-83
2023/09/13 11:21:26;;;;;;;2.00;1.85;;;24.30;49.40;;;;;;5019108;28;20025;-84
2023/09/13 11:23:52;;;;;;;2.05;1.92;;;24.30;49.40;;;;;;5026233;28;20061;-85
2023/09/13 11:26:45;;;;;;;68.95;61.88;;;24.30;49.40;;;;;;5023801;28;20030;-75
2023/09/13 11:29:25;;;;;;;3.55;2.20;;;24.30;48.90;;;;;;5017207;28;20404;-76
2023/09/13 11:32:04;;;;;;;3.08;2.28;;;24.30;49.10;;;;;;5028375;28;20108;-75
2023/09/13 11:34:34;;;;;;;2.80;1.83;;;24.30;49.10;;;;;;5012987;28;20083;-75
2023/09/13 11:37:02;;;;;;;3.95;2.08;;;24.40;49.20;;;;;;5030763;28;20045;-74
2023/09/13 11:39:28;;;;;;;2.40;2.20;;;24.40;49.10;;;;;;5020159;28;20065;-75
2023/09/13 11:41:57;;;;;;;3.05;2.25;;;24.40;49.10;;;;;;5029512;28;20022;-75
2023/09/13 11:44:25;;;;;;;2.58;2.38;;;24.40;49.00;;;;;;5032376;28;20029;-75
2023/09/13 11:46:52;;;;;;;2.47;2.28;;;24.40;48.90;;;;;;5014998;28;20029;-73
2023/09/13 11:49:23;;;;;;;3.53;2.20;;;24.50;48.90;;;;;;5030588;28;20040;-75
2023/09/13 11:51:59;;;;;;;2.60;2.33;;;24.50;48.80;;;;;;5054576;28;20108;-75
2023/09/13 11:54:26;;;;;;;2.13;1.92;;;24.50;48.60;;;;;;5049338;28;20479;-74
2023/09/13 11:56:53;;;;;;;2.30;2.10;;;24.60;48.80;;;;;;5047347;28;20104;-74
2023/09/13 11:59:26;;;;;;;4.40;2.28;;;24.50;48.70;;;;;;5036738;28;20621;-75
2023/09/13 12:01:52;;;;;;;3.47;2.70;;;24.60;48.70;;;;;;5038730;28;20037;-74
2023/09/13 12:04:22;;;;;;;2.30;2.10;;;24.60;48.70;;;;;;5035784;28;20057;-73
2023/09/13 12:06:50;;;;;;;4.70;2.20;;;24.60;48.60;;;;;;5035664;28;20084;-74
2023/09/13 12:09:17;;;;;;;2.42;2.15;;;24.60;48.50;;;;;;5033772;28;20468;-75
2023/09/13 12:11:54;;;;;;;3.95;2.08;;;24.60;48.50;;;;;;5035240;28;20096;-73
2023/09/13 12:14:22;;;;;;;3.10;2.00;;;24.70;48.40;;;;;;5033721;28;20120;-74
2023/09/13 12:16:52;;;;;;;4.57;2.15;;;24.70;48.40;;;;;;5015701;28;20040;-74
2023/09/13 12:19:18;;;;;;;3.47;2.30;;;24.70;48.40;;;;;;5013787;28;20476;-75
2023/09/13 12:21:45;;;;;;;2.58;2.25;;;24.70;48.30;;;;;;5015312;28;20040;-74
2023/09/13 12:24:17;;;;;;;3.03;2.60;;;24.80;48.30;;;;;;5020453;28;20030;-77
2023/09/13 12:26:43;;;;;;;2.63;2.20;;;24.90;48.30;;;;;;5015354;28;20417;-75
2023/09/13 12:29:08;;;;;;;3.42;2.10;;;24.90;48.20;;;;;;5013719;28;20125;-74
2023/09/13 12:31:34;;;;;;;2.92;2.63;;;24.90;48.20;;;;;;5015366;28;20113;-75
2023/09/13 12:34:01;;;;;;;2.65;2.30;;;25.00;48.20;;;;;;5013581;28;20061;-75
2023/09/13 12:36:27;;;;;;;3.55;2.10;;;25.00;48.20;;;;;;5018132;28;20053;-74
2023/09/13 12:38:55;;;;;;;2.40;2.20;;;25.00;48.10;;;;;;5033757;28;20499;-76
2023/09/13 12:41:26;;;;;;;2.67;2.20;;;25.10;48.10;;;;;;5034866;28;20041;-75
2023/09/13 12:43:52;;;;;;;3.08;2.20;;;25.10;48.00;;;;;;5034051;28;20033;-76
2023/09/13 12:46:21;;;;;;;2.72;2.03;;;25.20;48.00;;;;;;5032961;28;20063;-75